Time;durP1;ratioP1;P1;durP2;ratioP2;P2;SDS_P1;SDS_P2;PMS_P1;PMS_P2;Temp;Humidity;BMP_temperature;BMP_pressure;BME280_temperature;BME280_humidity;BME280_pressure;Samples;Min_cycle;Max_cycle;Signal;HPM_P1;HPM_P2
2021/08/02 00:00:17;;;;;;;5.75;1.77;;;;;;;14.57;85.49;98509.94;5033035;28;20032;-72
2021/08/02 00:02:48;;;;;;;3.47;1.50;;;;;;;14.54;84.54;98504.97;5024741;28;20458;-72
2021/08/02 00:05:14;;;;;;;4.00;2.38;;;;;;;14.42;85.20;98493.22;5032757;28;20375;-72
2021/08/02 00:07:41;;;;;;;2.40;1.67;;;;;;;14.46;84.81;98506.13;5033000;28;20041;-72
2021/08/02 00:10:15;;;;;;;3.45;1.88;;;;;;;14.35;85.04;98506.09;5014235;28;20047;-72
2021/08/02 00:12:55;;;;;;;3.55;1.70;;;;;;;14.32;85.90;98517.44;5033337;28;20104;-72
2021/08/02 00:15:20;;;;;;;3.13;1.70;;;;;;;14.29;85.99;98509.75;5032965;28;20029;-71
2021/08/02 00:17:47;;;;;;;3.78;1.63;;;;;;;14.26;86.20;98508.34;5021810;28;20372;-72
2021/08/02 00:20:19;;;;;;;2.65;1.75;;;;;;;14.28;86.10;98513.53;5033767;28;20514;-72
2021/08/02 00:22:45;;;;;;;2.40;1.50;;;;;;;14.41;86.47;98510.63;5013092;28;20088;-72
2021/08/02 00:25:11;;;;;;;5.53;2.53;;;;;;;14.58;84.72;98508.84;5033476;28;20030;-72
2021/08/02 00:27:37;;;;;;;5.00;1.77;;;;;;;14.60;84.59;98512.19;5030365;28;20036;-72
2021/08/02 00:30:05;;;;;;;2.78;1.88;;;;;;;14.71;84.64;98512.41;5033653;28;20021;-72
2021/08/02 00:32:32;;;;;;;4.70;1.85;;;;;;;14.43;86.24;98479.34;5033848;28;20108;-72
2021/08/02 00:34:57;;;;;;;4.03;2.10;;;;;;;14.60;86.62;98514.91;5033689;28;20029;-72
2021/08/02 00:37:38;;;;;;;3.97;2.20;;;;;;;14.59;85.94;98518.72;5027552;28;20574;-72
2021/08/02 00:40:47;;;;;;;2.40;1.70;;;;;;;14.50;86.62;98520.06;5019549;28;20529;-72
2021/08/02 00:43:18;;;;;;;2.80;1.92;;;;;;;14.59;86.28;98529.59;5013833;28;20056;-72
2021/08/02 00:45:43;;;;;;;3.38;1.85;;;;;;;14.63;86.62;98522.59;5027621;28;20037;-72
2021/08/02 00:48:11;;;;;;;4.65;2.00;;;;;;;14.54;86.96;98513.13;5032559;28;20079;-72
2021/08/02 00:50:43;;;;;;;3.67;1.85;;;;;;;14.52;87.32;98522.56;5031984;28;20101;-72
2021/08/02 00:53:14;;;;;;;2.50;1.80;;;;;;;14.45;87.08;98519.94;5017238;28;20557;-72
2021/08/02 00:55:43;;;;;;;4.15;1.90;;;;;;;14.35;87.76;98517.81;5032669;28;20043;-72
2021/08/02 00:58:12;;;;;;;2.58;1.75;;;;;;;14.34;87.90;98521.59;5031400;28;20394;-72
2021/08/02 01:00:38;;;;;;;3.95;2.22;;;;;;;14.40;87.82;98517.09;5033251;28;20040;-72
2021/08/02 01:03:07;;;;;;;3.78;2.03;;;;;;;14.44;87.14;98527.28;5031039;28;20033;-72
2021/08/02 01:05:35;;;;;;;2.33;1.83;;;;;;;14.28;86.82;98491.75;5032789;28;20022;-72
2021/08/02 01:08:07;;;;;;;3.85;1.80;;;;;;;14.60;86.02;98514.91;5013874;28;20112;-72
2021/08/02 01:10:34;;;;;;;4.53;1.80;;;;;;;14.56;86.32;98513.72;5015125;28;20477;-72
2021/08/02 01:13:07;;;;;;;4.90;1.50;;;;;;;14.64;85.79;98524.25;5032925;28;20049;-72
2021/08/02 01:15:33;;;;;;;3.35;1.60;;;;;;;14.45;85.92;98498.19;5026453;28;20026;-72
2021/08/02 01:18:00;;;;;;;2.80;1.80;;;;;;;14.53;86.19;98530.53;5026137;28;20076;-72
2021/08/02 01:20:28;;;;;;;4.25;2.22;;;;;;;14.56;86.14;98521.88;5017060;28;20026;-72
2021/08/02 01:22:54;;;;;;;3.20;1.60;;;;;;;14.58;85.68;98522.47;5030701;28;20033;-72
2021/08/02 01:25:38;;;;;;;3.28;1.80;;;;;;;14.54;86.31;98521.31;5032300;28;20268;-72
2021/08/02 01:28:15;;;;;;;3.83;1.60;;;;;;;14.57;86.24;98523.56;5012130;28;20033;-72
2021/08/02 01:30:41;;;;;;;5.57;1.83;;;;;;;14.50;86.64;98517.34;5029730;28;20033;-72
2021/08/02 01:33:06;;;;;;;4.13;1.60;;;;;;;14.55;85.96;98503.91;5032137;28;20649;-72
2021/08/02 01:35:32;;;;;;;7.03;2.00;;;;;;;14.65;86.09;98525.91;5031952;28;20029;-72
2021/08/02 01:37:59;;;;;;;2.85;1.50;;;;;;;14.66;85.56;98513.13;5032619;28;20029;-72
2021/08/02 01:40:25;;;;;;;4.15;1.50;;;;;;;14.82;85.07;98520.56;5019204;28;20030;-72
2021/08/02 01:42:50;;;;;;;3.65;1.45;;;;;;;14.79;84.73;98515.59;5018918;28;20053;-71
2021/08/02 01:45:15;;;;;;;6.10;1.92;;;;;;;14.91;84.36;98512.88;5027398;28;20044;-71
2021/08/02 01:48:01;;;;;;;2.20;1.50;;;;;;;14.90;84.74;98519.38;5032412;28;20418;-71
2021/08/02 01:50:51;;;;;;;1.83;1.33;;;;;;;14.92;84.65;98521.88;5020154;28;20033;-72
2021/08/02 01:53:53;;;;;;;2.80;1.45;;;;;;;14.79;85.24;98514.78;5012158;28;20080;-72
2021/08/02 01:56:21;;;;;;;4.60;1.33;;;;;;;14.72;84.93;98519.50;5013014;28;20033;-71
2021/08/02 01:58:52;;;;;;;2.38;1.45;;;;;;;14.72;84.28;98524.97;5023861;28;20028;-71
2021/08/02 02:01:22;;;;;;;3.45;1.67;;;;;;;14.71;84.43;98528.75;5030153;28;20604;-72
2021/08/02 02:03:49;;;;;;;3.45;1.58;;;;;;;14.51;84.30;98508.09;5029752;28;20033;-72
2021/08/02 02:06:16;;;;;;;2.47;1.40;;;;;;;14.60;85.04;98525.78;5023967;28;20044;-72
2021/08/02 02:08:56;;;;;;;2.53;1.42;;;;;;;14.56;85.18;98519.16;5032149;28;20059;-72
2021/08/02 02:11:23;;;;;;;3.90;1.50;;;;;;;14.53;84.68;98524.25;5015262;28;20582;-72
2021/08/02 02:13:53;;;;;;;1.40;1.30;;;;;;;14.52;84.62;98526.13;5031719;28;20487;-72
2021/08/02 02:16:19;;;;;;;3.22;1.58;;;;;;;14.41;84.97;98526.94;5032156;28;20040;-72
2021/08/02 02:18:49;;;;;;;2.78;1.60;;;;;;;14.32;85.42;98526.44;5031056;28;20048;-72
2021/08/02 02:21:17;;;;;;;2.80;1.60;;;;;;;14.15;86.02;98512.69;5023987;28;20480;-72
2021/08/02 02:23:44;;;;;;;6.80;1.55;;;;;;;14.17;86.38;98526.91;5027939;28;20422;-72
2021/08/02 02:26:11;;;;;;;3.72;1.33;;;;;;;14.07;86.51;98523.91;5022521;28;20585;-72
2021/08/02 02:28:36;;;;;;;5.57;1.50;;;;;;;14.14;86.20;98538.22;5012311;28;20183;-71
2021/08/02 02:31:03;;;;;;;4.75;1.67;;;;;;;14.16;86.46;98543.44;5025334;28;20035;-72
2021/08/02 02:33:31;;;;;;;3.95;1.65;;;;;;;14.22;86.15;98537.88;5030470;28;20130;-71
2021/08/02 02:35:57;;;;;;;4.55;1.45;;;;;;;14.30;86.14;98544.88;5012358;28;20487;-71
2021/08/02 02:38:23;;;;;;;2.08;1.50;;;;;;;14.28;86.63;98551.63;5012953;28;20073;-71
2021/08/02 02:40:49;;;;;;;6.28;1.77;;;;;;;14.28;86.84;98551.63;5024387;28;20021;-71
2021/08/02 02:43:15;;;;;;;4.63;1.65;;;;;;;14.11;87.91;98544.13;5031850;28;20033;-71
2021/08/02 02:45:43;;;;;;;2.88;1.48;;;;;;;14.15;87.67;98550.78;5031350;28;20026;-72
2021/08/02 02:48:10;;;;;;;2.95;1.63;;;;;;;14.07;87.98;98551.13;5030845;28;20390;-71
2021/08/02 02:50:37;;;;;;;3.33;1.70;;;;;;;13.91;88.23;98536.28;5029127;28;20029;-72
2021/08/02 02:53:04;;;;;;;4.13;1.60;;;;;;;13.90;88.51;98544.66;5030204;28;20116;-72
2021/08/02 02:55:32;;;;;;;2.53;1.40;;;;;;;13.67;89.53;98535.34;5031156;28;20029;-71
2021/08/02 02:57:58;;;;;;;6.07;1.63;;;;;;;13.69;90.27;98565.88;5031750;28;20487;-71
2021/08/02 03:00:24;;;;;;;2.72;1.60;;;;;;;13.50;90.94;98537.88;5036005;22;20268;-69
2021/08/02 03:02:52;;;;;;;2.78;1.70;;;;;;;13.57;91.39;98559.53;5045946;28;20432;-67
2021/08/02 03:05:21;;;;;;;3.35;1.60;;;;;;;13.52;91.21;98562.97;5051142;28;20032;-68
2021/08/02 03:07:51;;;;;;;2.95;1.50;;;;;;;13.65;90.47;98561.09;5047493;28;20509;-68
2021/08/02 03:10:21;;;;;;;4.05;1.60;;;;;;;13.74;90.13;98567.91;5049464;28;20036;-68
2021/08/02 03:12:46;;;;;;;4.32;1.30;;;;;;;13.68;90.47;98564.22;5055257;28;20028;-68
2021/08/02 03:15:12;;;;;;;3.15;1.80;;;;;;;13.59;91.13;98557.41;5055168;28;20592;-69
2021/08/02 03:17:38;;;;;;;3.78;1.65;;;;;;;13.21;92.27;98538.66;5054706;28;20029;-68
2021/08/02 03:20:04;;;;;;;5.20;1.92;;;;;;;13.33;92.73;98575.69;5048246;28;20123;-69
2021/08/02 03:22:41;;;;;;;2.63;1.60;;;;;;;13.41;91.97;98573.75;5035907;28;20367;-69
2021/08/02 03:25:15;;;;;;;2.78;1.52;;;;;;;13.38;91.20;98581.28;5052696;28;20111;-69
2021/08/02 03:28:05;;;;;;;2.95;1.67;;;;;;;13.38;91.52;98575.84;5055178;28;20036;-69
2021/08/02 03:30:34;;;;;;;3.33;1.58;;;;;;;13.31;91.99;98575.13;5044728;28;20032;-68
2021/08/02 03:33:01;;;;;;;4.50;1.70;;;;;;;13.21;91.63;98569.34;5039915;28;20040;-68
2021/08/02 03:35:28;;;;;;;3.22;1.90;;;;;;;13.22;91.08;98559.31;5052608;28;20111;-73
2021/08/02 03:37:54;;;;;;;4.60;1.55;;;;;;;13.33;91.54;98586.56;5040421;28;20070;-72
2021/08/02 03:40:19;;;;;;;2.50;1.60;;;;;;;13.28;91.65;98585.59;5049241;28;20043;-72
2021/08/02 03:42:46;;;;;;;5.18;2.08;;;;;;;13.33;91.32;98592.00;5051275;28;20028;-75
2021/08/02 03:45:13;;;;;;;3.53;1.70;;;;;;;13.44;90.92;98595.88;5041827;28;20039;-73
2021/08/02 03:47:41;;;;;;;3.25;1.70;;;;;;;13.33;91.06;98586.56;5054531;28;20036;-73
2021/08/02 03:50:06;;;;;;;2.40;1.65;;;;;;;13.19;91.52;98595.09;5036962;28;20433;-73
2021/08/02 03:52:32;;;;;;;5.25;1.75;;;;;;;13.11;91.63;98585.34;5044935;28;20029;-73
2021/08/02 03:54:57;;;;;;;5.22;2.00;;;;;;;13.02;91.98;98595.69;5053789;28;20103;-73
2021/08/02 03:57:23;;;;;;;4.50;2.20;;;;;;;12.84;92.52;98580.19;5054487;28;20470;-73
2021/08/02 03:59:50;;;;;;;4.05;2.25;;;;;;;12.86;93.26;98605.22;5030765;28;20479;-74
2021/08/02 04:02:16;;;;;;;8.23;2.50;;;;;;;12.73;94.54;98599.88;5029951;28;20043;-72
2021/08/02 04:04:41;;;;;;;6.30;2.60;;;;;;;12.76;94.27;98618.47;5044996;28;20028;-75
2021/08/02 04:07:07;;;;;;;9.23;2.50;;;;;;;12.58;94.19;98600.25;5036514;28;20028;-75
2021/08/02 04:09:32;;;;;;;3.95;2.50;;;;;;;12.70;94.90;98605.78;5036555;28;20025;-75
2021/08/02 04:11:57;;;;;;;4.25;2.42;;;;;;;12.77;94.65;98581.28;5051472;28;20033;-69
2021/08/02 04:14:27;;;;;;;5.32;2.70;;;;;;;13.00;94.32;98622.22;5054187;28;20037;-73
2021/08/02 04:16:52;;;;;;;8.98;2.58;;;;;;;13.15;93.53;98605.56;5042000;28;20075;-74
2021/08/02 04:19:17;;;;;;;6.82;2.40;;;;;;;13.07;93.20;98600.41;5037161;28;20033;-75
2021/08/02 04:21:43;;;;;;;3.00;2.15;;;;;;;13.32;93.06;98622.13;5027708;28;20017;-73
2021/08/02 04:24:08;;;;;;;7.18;2.60;;;;;;;13.11;93.02;98607.06;5053398;28;20108;-73
2021/08/02 04:26:34;;;;;;;9.50;2.42;;;;;;;13.25;92.86;98624.06;5050520;28;20029;-76
2021/08/02 04:28:59;;;;;;;4.72;2.30;;;;;;;13.22;92.52;98605.50;5034026;28;20032;-71
2021/08/02 04:31:26;;;;;;;3.53;2.03;;;;;;;13.25;92.47;98614.00;5041416;28;20021;-72
2021/08/02 04:33:52;;;;;;;4.30;2.13;;;;;;;13.34;92.09;98623.56;5052840;28;20119;-74
2021/08/02 04:36:18;;;;;;;6.57;2.42;;;;;;;13.31;92.27;98637.63;5044852;28;20029;-73
2021/08/02 04:38:43;;;;;;;4.78;2.35;;;;;;;13.10;92.50;98600.00;5033882;28;20025;-72
2021/08/02 04:41:08;;;;;;;5.82;2.70;;;;;;;13.30;92.38;98610.66;5041603;28;20021;-73
2021/08/02 04:43:34;;;;;;;6.43;2.10;;;;;;;13.32;92.58;98603.94;5022607;28;20025;-72
2021/08/02 04:45:59;;;;;;;6.63;2.33;;;;;;;13.36;92.57;98626.03;5033295;28;20042;-68
2021/08/02 04:48:24;;;;;;;3.58;1.88;;;;;;;13.43;92.13;98623.28;5041182;28;20102;-68
2021/08/02 04:50:50;;;;;;;4.75;1.60;;;;;;;13.62;91.02;98626.81;5051743;28;20032;-68
2021/08/02 04:53:15;;;;;;;4.97;2.03;;;;;;;13.70;89.72;98626.50;5052851;28;20111;-68
2021/08/02 04:55:40;;;;;;;5.22;2.10;;;;;;;13.67;90.25;98632.41;5035299;28;20769;-67
2021/08/02 04:58:06;;;;;;;5.72;1.90;;;;;;;13.60;90.57;98621.63;5053423;28;20044;-73
2021/08/02 05:00:31;;;;;;;4.50;1.65;;;;;;;13.79;90.76;98636.84;5050307;28;20502;-68
2021/08/02 05:02:57;;;;;;;5.72;1.98;;;;;;;13.80;90.80;98622.19;5038737;28;20021;-70
2021/08/02 05:05:22;;;;;;;2.13;1.60;;;;;;;13.97;91.07;98627.00;5051978;28;20032;-73
2021/08/02 05:07:47;;;;;;;4.25;2.05;;;;;;;13.99;90.30;98638.47;5053247;28;20075;-72
2021/08/02 05:10:13;;;;;;;9.07;2.28;;;;;;;14.11;90.16;98635.81;5049435;28;20432;-73
2021/08/02 05:12:38;;;;;;;5.95;2.10;;;;;;;14.16;89.44;98636.78;5041835;28;20033;-73
2021/08/02 05:15:05;;;;;;;3.15;1.92;;;;;;;14.21;88.02;98626.03;5053290;28;20025;-73
2021/08/02 05:17:31;;;;;;;3.72;2.15;;;;;;;14.36;88.29;98632.97;5034813;28;20024;-73
2021/08/02 05:19:56;;;;;;;4.28;2.22;;;;;;;14.48;87.29;98631.91;5038338;28;20022;-73
2021/08/02 05:22:21;;;;;;;4.35;1.65;;;;;;;14.56;86.71;98633.50;5049222;28;20087;-70
2021/08/02 05:24:46;;;;;;;3.75;1.83;;;;;;;14.53;86.44;98630.41;5045883;28;20020;-78
2021/08/02 05:27:12;;;;;;;5.65;1.70;;;;;;;14.47;87.47;98621.25;5033562;28;20040;-76
2021/08/02 05:29:37;;;;;;;10.55;2.25;;;;;;;14.61;87.67;98646.41;5036494;28;20017;-76
2021/08/02 05:32:03;;;;;;;6.35;1.95;;;;;;;14.67;87.02;98630.00;5034915;28;20106;-76
2021/08/02 05:34:28;;;;;;;3.47;1.80;;;;;;;14.61;87.10;98619.19;5034603;28;20032;-76
2021/08/02 05:36:53;;;;;;;8.55;2.05;;;;;;;14.76;86.15;98635.09;5030765;28;20059;-76
2021/08/02 05:39:19;;;;;;;6.95;1.85;;;;;;;14.81;85.16;98616.16;5041519;28;20107;-72
2021/08/02 05:41:44;;;;;;;3.78;2.10;;;;;;;14.75;85.34;98615.19;5024392;28;20032;-73
2021/08/02 05:44:09;;;;;;;5.25;2.60;;;;;;;14.96;85.30;98635.59;5044267;28;20497;-75
2021/08/02 05:46:34;;;;;;;5.88;2.17;;;;;;;14.94;85.03;98631.44;5047754;28;20060;-74
2021/08/02 05:49:00;;;;;;;3.53;2.20;;;;;;;14.88;85.12;98627.75;5022524;28;20017;-73
2021/08/02 05:51:25;;;;;;;4.38;2.20;;;;;;;15.04;85.26;98654.31;5024102;28;20375;-74
2021/08/02 05:53:51;;;;;;;3.55;2.17;;;;;;;15.02;85.58;98634.63;5033884;28;20115;-75
2021/08/02 05:56:17;;;;;;;6.93;2.00;;;;;;;15.24;86.25;98643.03;5031953;28;20025;-74
2021/08/02 05:58:42;;;;;;;7.25;2.30;;;;;;;15.33;85.83;98644.34;5046065;28;20115;-75
2021/08/02 06:01:08;;;;;;;4.72;2.00;;;;;;;15.11;85.45;98633.19;5030508;28;20025;-76
2021/08/02 06:03:33;;;;;;;2.42;1.80;;;;;;;15.34;85.13;98643.28;5031172;28;20049;-77
2021/08/02 06:05:59;;;;;;;3.33;1.75;;;;;;;15.56;85.40;98648.94;5029767;28;20021;-73
2021/08/02 06:08:25;;;;;;;4.65;2.05;;;;;;;15.57;85.76;98661.50;5031657;28;20166;-74
2021/08/02 06:10:50;;;;;;;4.72;1.90;;;;;;;15.38;85.50;98627.28;5044262;28;20049;-74
2021/08/02 06:13:15;;;;;;;4.00;1.75;;;;;;;15.64;85.13;98647.75;5039286;28;20498;-74
2021/08/02 06:15:40;;;;;;;6.95;1.90;;;;;;;15.45;81.57;98602.59;5045436;28;20082;-76
2021/08/02 06:18:06;;;;;;;4.93;2.25;;;;;;;15.81;81.34;98655.22;5030471;28;20032;-75
2021/08/02 06:20:31;;;;;;;4.63;1.90;;;;;;;15.83;80.45;98655.81;5032456;28;20167;-73
2021/08/02 06:22:56;;;;;;;6.85;1.80;;;;;;;15.74;80.47;98650.69;5045290;28;20474;-73
2021/08/02 06:25:22;;;;;;;5.20;1.90;;;;;;;15.84;80.42;98661.00;5043925;28;20037;-74
2021/08/02 06:27:47;;;;;;;2.72;1.80;;;;;;;15.82;80.21;98660.41;5031294;28;20020;-74
2021/08/02 06:30:13;;;;;;;9.45;2.03;;;;;;;15.64;81.12;98649.63;5048352;28;20022;-74
2021/08/02 06:32:38;;;;;;;3.20;1.77;;;;;;;15.89;80.36;98660.28;5048947;28;20036;-77
2021/08/02 06:35:04;;;;;;;4.55;1.90;;;;;;;15.72;80.50;98632.94;5024943;28;20031;-74
2021/08/02 06:37:29;;;;;;;5.15;1.85;;;;;;;15.74;80.79;98639.78;5031725;28;20017;-74
2021/08/02 06:39:55;;;;;;;6.10;2.10;;;;;;;15.89;80.05;98655.66;5036856;28;20498;-74
2021/08/02 06:42:20;;;;;;;5.07;1.73;;;;;;;16.02;80.27;98648.28;5017571;28;20037;-77
2021/08/02 06:44:46;;;;;;;1.85;1.58;;;;;;;16.14;79.14;98627.25;5024262;28;20040;-73
2021/08/02 06:47:11;;;;;;;8.10;2.30;;;;;;;16.48;78.50;98673.72;5034701;28;20044;-76
2021/08/02 06:49:37;;;;;;;7.95;1.92;;;;;;;16.42;78.35;98642.75;5047462;28;20029;-76
2021/08/02 06:52:02;;;;;;;4.47;1.77;;;;;;;16.84;77.09;98672.47;5034139;28;20021;-75
2021/08/02 06:54:28;;;;;;;6.13;1.90;;;;;;;16.89;75.82;98636.22;5030385;28;20055;-75
2021/08/02 06:56:53;;;;;;;7.80;2.00;;;;;;;17.01;75.34;98661.56;5034216;28;20371;-74
2021/08/02 06:59:19;;;;;;;5.60;2.00;;;;;;;17.18;75.22;98677.94;5031991;28;20031;-75
2021/08/02 07:01:44;;;;;;;2.78;1.70;;;;;;;17.22;74.67;98655.34;5032975;28;20040;-75
2021/08/02 07:04:09;;;;;;;4.05;1.60;;;;;;;17.68;73.54;98682.50;5043662;28;20025;-76
2021/08/02 07:06:35;;;;;;;4.15;1.92;;;;;;;17.73;72.82;98668.91;5028473;28;20061;-75
2021/08/02 07:09:00;;;;;;;6.20;2.10;;;;;;;17.74;73.29;98685.09;5038615;28;20489;-74
2021/08/02 07:11:26;;;;;;;8.10;1.70;;;;;;;17.67;72.61;98656.25;5049879;28;20040;-75
2021/08/02 07:13:54;;;;;;;3.40;1.60;;;;;;;17.92;72.17;98661.22;5050000;28;20032;-74
2021/08/02 07:16:20;;;;;;;12.15;1.73;;;;;;;17.85;72.92;98683.34;5051433;28;22902;-74
2021/08/02 07:18:46;;;;;;;12.10;2.17;;;;;;;18.08;72.10;98679.53;5027315;28;20031;-68
2021/08/02 07:21:11;;;;;;;6.40;1.95;;;;;;;18.21;70.94;98661.03;5055080;28;20017;-75
2021/08/02 07:23:37;;;;;;;6.03;1.60;;;;;;;18.27;70.50;98657.28;5028969;28;20449;-74
2021/08/02 07:26:03;;;;;;;3.78;1.67;;;;;;;18.54;68.75;98668.25;5041720;28;20025;-73
2021/08/02 07:28:28;;;;;;;7.75;1.90;;;;;;;18.26;68.72;98661.94;5051911;28;20382;-71
2021/08/02 07:30:54;;;;;;;6.55;1.52;;;;;;;18.33;68.53;98668.03;5037900;28;20022;-70
2021/08/02 07:33:19;;;;;;;5.63;1.73;;;;;;;18.55;67.57;98676.22;5045001;28;20043;-66
2021/08/02 07:35:44;;;;;;;7.53;1.63;;;;;;;18.77;67.37;98653.44;5037129;28;20029;-69
2021/08/02 07:38:11;;;;;;;2.55;1.30;;;;;;;19.06;66.34;98681.34;5050921;28;20021;-69
2021/08/02 07:40:36;;;;;;;4.68;1.50;;;;;;;18.78;65.89;98660.56;5054876;28;20017;-69
2021/08/02 07:43:02;;;;;;;5.03;1.83;;;;;;;18.94;65.88;98687.03;5054695;28;20028;-70
2021/08/02 07:45:27;;;;;;;4.70;1.85;;;;;;;19.26;64.99;98672.47;5055066;28;20409;-71
2021/08/02 07:47:52;;;;;;;2.83;1.60;;;;;;;19.14;65.80;98678.13;5046878;28;20483;-70
2021/08/02 07:50:18;;;;;;;3.33;1.50;;;;;;;19.19;64.86;98664.47;5044933;28;20086;-70
2021/08/02 07:52:43;;;;;;;4.15;1.67;;;;;;;19.16;64.85;98665.00;5049954;28;20029;-69
2021/08/02 07:55:11;;;;;;;4.13;1.52;;;;;;;19.27;65.57;98679.59;5047503;28;20134;-70
2021/08/02 07:57:37;;;;;;;4.85;2.00;;;;;;;19.29;66.19;98679.34;5045970;28;20100;-71
2021/08/02 08:00:04;;;;;;;1.88;1.42;;;;;;;19.58;63.19;98677.91;5032206;28;20056;-71
2021/08/02 08:02:29;;;;;;;7.05;1.63;;;;;;;19.31;64.34;98667.03;5024334;28;20029;-70
2021/08/02 08:04:55;;;;;;;4.30;1.38;;;;;;;19.49;64.03;98669.34;5049533;28;20021;-69
2021/08/02 08:07:20;;;;;;;4.55;1.83;;;;;;;19.51;64.14;98660.81;5023699;28;20445;-70
2021/08/02 08:09:45;;;;;;;2.88;1.23;;;;;;;19.66;62.89;98651.88;5025225;28;20032;-74
2021/08/02 08:12:11;;;;;;;3.67;1.40;;;;;;;19.45;63.70;98654.50;5042951;28;20037;-70
2021/08/02 08:14:36;;;;;;;3.97;1.50;;;;;;;20.05;62.52;98673.50;5017149;28;20500;-70
2021/08/02 08:17:02;;;;;;;11.75;1.80;;;;;;;20.18;62.60;98684.00;5036191;28;20029;-71
2021/08/02 08:19:27;;;;;;;3.53;1.27;;;;;;;20.34;61.67;98663.69;5034182;28;20025;-73
2021/08/02 08:21:52;;;;;;;2.45;1.40;;;;;;;20.63;61.16;98670.69;5042964;28;20111;-71
2021/08/02 08:24:17;;;;;;;2.80;1.40;;;;;;;20.64;60.44;98673.13;5027704;28;20394;-70
2021/08/02 08:26:43;;;;;;;2.90;1.45;;;;;;;20.56;60.29;98673.66;5054122;28;20071;-73
2021/08/02 08:29:08;;;;;;;1.58;1.10;;;;;;;20.70;58.50;98652.81;5045664;28;20025;-74
2021/08/02 08:31:33;;;;;;;1.50;1.20;;;;;;;20.92;57.75;98669.03;5034388;28;20546;-70
2021/08/02 08:33:59;;;;;;;4.20;1.40;;;;;;;21.09;56.60;98673.44;5044250;28;20092;-70
2021/08/02 08:36:24;;;;;;;7.68;1.42;;;;;;;20.54;59.62;98675.84;5038471;28;20438;-71
2021/08/02 08:38:49;;;;;;;3.03;1.27;;;;;;;20.99;57.33;98675.09;5035936;28;20025;-70
2021/08/02 08:41:19;;;;;;;3.63;1.20;;;;;;;21.42;56.01;98683.91;5034901;28;20108;-71
2021/08/02 08:43:44;;;;;;;;;;;;;;;21.55;56.08;98676.19;5053240;28;20033;-69
2021/08/02 08:46:09;;;;;;;3.42;1.25;;;;;;;21.02;57.02;98665.47;5043310;28;19913;-70
2021/08/02 08:48:35;;;;;;;5.50;1.10;;;;;;;21.60;55.00;98679.75;5039375;28;20113;-70
2021/08/02 08:51:03;;;;;;;1.77;1.23;;;;;;;21.42;56.09;98666.59;5019881;28;20493;-71
2021/08/02 08:53:29;;;;;;;4.03;1.30;;;;;;;21.31;56.36;98675.94;5039929;28;20087;-71
2021/08/02 08:55:54;;;;;;;4.90;1.17;;;;;;;21.98;55.52;98673.84;5040830;28;20478;-71
2021/08/02 08:58:20;;;;;;;2.47;1.05;;;;;;;22.69;52.98;98678.22;5049067;28;20028;-71
2021/08/02 09:00:45;;;;;;;4.90;1.17;;;;;;;21.98;53.50;98647.16;5042091;28;20115;-68
2021/08/02 09:03:15;;;;;;;3.40;1.20;;;;;;;22.27;52.42;98676.81;5048665;28;20044;-68
2021/08/02 09:05:41;;;;;;;2.00;1.10;;;;;;;24.19;50.42;98669.09;5032607;28;20054;-67
2021/08/02 09:08:12;;;;;;;2.30;1.05;;;;;;;25.09;46.61;98678.31;5045282;28;20096;-67
2021/08/02 09:10:38;;;;;;;5.00;1.10;;;;;;;25.67;44.49;98667.94;5032997;28;20107;-67
2021/08/02 09:13:05;;;;;;;2.80;1.02;;;;;;;26.07;44.05;98677.44;5035863;28;20033;-67
2021/08/02 09:15:46;;;;;;;3.45;1.00;;;;;;;27.31;41.31;98667.97;5046307;28;20028;-67
2021/08/02 09:18:20;;;;;;;3.78;0.88;;;;;;;28.52;38.54;98656.56;5052936;28;20021;-67
2021/08/02 09:20:46;;;;;;;4.80;1.42;;;;;;;27.90;38.87;98665.03;5022287;28;20028;-68
2021/08/02 09:23:14;;;;;;;4.68;0.80;;;;;;;29.09;37.68;98654.78;5036375;28;20025;-67
2021/08/02 09:25:51;;;;;;;2.90;1.00;;;;;;;29.65;36.10;98652.88;5053053;28;20087;-67
2021/08/02 09:28:21;;;;;;;1.88;0.90;;;;;;;28.63;37.29;98657.88;5045194;28;20025;-67
2021/08/02 09:31:00;;;;;;;1.33;0.80;;;;;;;28.51;37.95;98642.97;5049234;28;20029;-67
2021/08/02 09:33:27;;;;;;;2.90;1.00;;;;;;;29.34;36.22;98641.94;5033125;28;20518;-67
2021/08/02 09:35:52;;;;;;;2.72;0.60;;;;;;;29.28;35.11;98625.41;5037727;28;20425;-68
2021/08/02 09:38:22;;;;;;;7.43;1.77;;;;;;;30.22;34.20;98641.28;5053065;28;20087;-67
2021/08/02 09:40:52;;;;;;;1.58;0.68;;;;;;;30.96;34.46;98644.56;5021738;28;20057;-67
2021/08/02 09:43:21;;;;;;;4.07;0.98;;;;;;;31.98;32.15;98640.19;5032677;28;20022;-68
2021/08/02 09:45:55;;;;;;;2.63;0.82;;;;;;;32.27;30.93;98632.72;5043879;28;20609;-68
2021/08/02 09:48:32;;;;;;;3.03;0.90;;;;;;;34.37;29.12;98628.50;5032773;28;20033;-68
2021/08/02 09:51:08;;;;;;;3.45;0.80;;;;;;;31.46;31.57;98640.81;5033386;28;20052;-67
2021/08/02 09:53:39;;;;;;;4.63;1.00;;;;;;;26.95;39.31;98648.59;5047439;28;20032;-67
2021/08/02 09:56:06;;;;;;;1.05;0.60;;;;;;;26.61;41.10;98641.63;5052523;28;20024;-66
2021/08/02 09:58:32;;;;;;;1.58;0.95;;;;;;;25.66;42.09;98646.91;5052618;28;20398;-66
2021/08/02 10:00:57;;;;;;;2.47;0.77;;;;;;;25.10;44.00;98646.75;5051410;28;20498;-66
2021/08/02 10:03:24;;;;;;;3.60;0.90;;;;;;;26.07;42.16;98641.41;5037896;28;20029;-67
2021/08/02 10:05:50;;;;;;;4.43;0.80;;;;;;;26.27;43.53;98639.31;5032655;28;20104;-67
2021/08/02 10:08:17;;;;;;;2.20;0.52;;;;;;;26.00;41.95;98629.91;5032769;28;20159;-67
2021/08/02 10:10:43;;;;;;;2.25;0.80;;;;;;;25.72;43.33;98629.84;5032221;28;20039;-67
2021/08/02 10:13:09;;;;;;;2.53;0.82;;;;;;;25.11;44.41;98608.81;5033462;28;20104;-66
2021/08/02 10:15:35;;;;;;;1.42;0.85;;;;;;;25.01;44.96;98631.13;5036013;28;20033;-66
2021/08/02 10:18:04;;;;;;;2.00;0.95;;;;;;;24.68;45.18;98611.72;5032309;28;20110;-66
2021/08/02 10:20:32;;;;;;;0.88;0.88;;;;;;;24.64;46.11;98628.13;5036141;28;20021;-67
2021/08/02 10:22:59;;;;;;;4.38;1.08;;;;;;;23.36;48.37;98631.63;5032871;28;20045;-67
2021/08/02 10:25:37;;;;;;;2.13;1.10;;;;;;;22.85;51.04;98649.44;5046407;28;20475;-67
2021/08/02 10:28:14;;;;;;;3.60;0.77;;;;;;;21.80;52.83;98639.53;5046096;28;20108;-66
2021/08/02 10:30:41;;;;;;;0.80;0.68;;;;;;;21.25;56.51;98647.59;5044372;28;20052;-67
2021/08/02 10:33:07;;;;;;;2.45;0.90;;;;;;;20.85;57.80;98645.66;5050737;28;20029;-67
2021/08/02 10:35:43;;;;;;;1.67;0.82;;;;;;;20.53;58.18;98638.47;5051752;28;20048;-67
2021/08/02 10:38:16;;;;;;;2.75;1.00;;;;;;;19.66;59.00;98635.41;5036118;28;20474;-69
2021/08/02 10:40:54;;;;;;;2.95;0.98;;;;;;;19.52;61.35;98637.81;5047314;28;20155;-66
2021/08/02 10:43:30;;;;;;;1.25;0.82;;;;;;;19.24;59.76;98634.31;5050137;28;20068;-69
2021/08/02 10:45:57;;;;;;;1.77;0.70;;;;;;;19.13;61.10;98634.53;5044869;28;20144;-69
2021/08/02 10:48:27;;;;;;;1.27;0.73;;;;;;;19.11;60.61;98612.03;5031702;28;20490;-71
2021/08/02 10:50:53;;;;;;;1.60;0.77;;;;;;;19.38;59.15;98607.25;5048790;28;20056;-73
2021/08/02 10:53:19;;;;;;;10.73;1.13;;;;;;;19.35;58.96;98616.00;5048426;28;20064;-73
2021/08/02 10:55:52;;;;;;;1.35;0.57;;;;;;;19.35;59.07;98606.97;5039573;28;20025;-73
2021/08/02 10:58:36;;;;;;;1.13;0.52;;;;;;;19.24;59.65;98608.81;5032691;28;20074;-73
2021/08/02 11:01:03;;;;;;;1.60;0.90;;;;;;;19.13;60.02;98618.91;5018141;28;20079;-75
2021/08/02 11:03:36;;;;;;;1.15;0.63;;;;;;;19.22;59.80;98614.56;5020781;28;20030;-74
2021/08/02 11:06:13;;;;;;;5.00;0.85;;;;;;;20.71;55.79;98612.41;5045124;28;20031;-74
2021/08/02 11:08:53;;;;;;;0.95;0.60;;;;;;;23.95;48.59;98613.03;5025718;28;20108;-75
2021/08/02 11:11:23;;;;;;;2.28;0.50;;;;;;;25.99;43.18;98590.25;5051480;28;20013;-75
2021/08/02 11:13:51;;;;;;;1.63;0.70;;;;;;;26.47;42.12;98597.25;5041276;28;20067;-75
2021/08/02 11:16:17;;;;;;;1.85;0.57;;;;;;;25.10;43.85;98609.97;5037557;28;20033;-69
2021/08/02 11:18:44;;;;;;;2.35;0.50;;;;;;;25.52;43.07;98600.63;5044025;28;20028;-67
2021/08/02 11:21:24;;;;;;;2.92;0.70;;;;;;;24.97;42.66;98622.63;5049893;28;20063;-68
2021/08/02 11:23:50;;;;;;;2.75;1.48;;;;;;;24.72;43.57;98618.31;5032285;28;20029;-68
2021/08/02 11:26:16;;;;;;;2.88;0.60;;;;;;;25.28;42.28;98611.03;5034386;28;20029;-68
2021/08/02 11:28:44;;;;;;;1.15;0.40;;;;;;;24.07;43.96;98577.47;5024071;28;20403;-68
2021/08/02 11:31:11;;;;;;;1.40;0.90;;;;;;;24.13;44.10;98603.09;5042740;28;20017;-67
2021/08/02 11:33:38;;;;;;;1.08;0.55;;;;;;;23.87;44.19;98599.84;5041777;28;20037;-68
2021/08/02 11:36:05;;;;;;;1.83;0.88;;;;;;;23.40;48.95;98605.91;5042004;28;20044;-70